createdAt,value
2022-11-22T00:03:09.818Z,4.46
2022-11-22T00:08:11.391Z,4.25
2022-11-22T00:13:12.876Z,4.23
2022-11-22T00:18:14.326Z,4.25
2022-11-22T00:23:16.582Z,4.20
2022-11-22T00:28:18.113Z,4.36
2022-11-22T00:33:19.617Z,4.49
2022-11-22T00:38:21.096Z,4.49
2022-11-22T00:43:23.714Z,4.30
2022-11-22T00:48:25.237Z,4.32
2022-11-22T00:53:26.803Z,4.39
2022-11-22T00:58:28.309Z,4.53
2022-11-22T01:03:29.934Z,4.49
2022-11-22T01:08:31.419Z,4.58
2022-11-22T01:13:33.021Z,4.59
2022-11-22T01:18:34.867Z,4.71
2022-11-22T01:23:36.924Z,4.80
2022-11-22T01:28:38.430Z,4.88
2022-11-22T01:33:39.898Z,4.81
2022-11-22T01:38:41.343Z,4.75
2022-11-22T01:43:42.868Z,4.75
2022-11-22T01:49:03.235Z,4.88
2022-11-22T01:54:11.684Z,4.88
2022-11-22T01:59:17.047Z,4.87
2022-11-22T02:04:20.507Z,5.02
2022-11-22T02:09:23.413Z,5.12
2022-11-22T02:14:27.419Z,5.18
2022-11-22T02:19:51.191Z,5.21
2022-11-22T02:25:16.068Z,5.20
2022-11-22T02:30:18.398Z,5.24
2022-11-22T02:35:23.131Z,5.16
2022-11-22T02:40:26.719Z,5.18
2022-11-22T02:45:28.321Z,5.10
2022-11-22T02:50:29.823Z,5.10
2022-11-22T02:55:31.362Z,5.09
2022-11-22T03:00:34.665Z,4.99
2022-11-22T03:05:36.118Z,4.92
2022-11-22T03:10:37.735Z,4.98
2022-11-22T03:15:39.264Z,4.92
2022-11-22T03:20:40.750Z,4.92
2022-11-22T03:25:42.513Z,4.92
2022-11-22T03:30:44.014Z,4.93
2022-11-22T03:35:45.622Z,5.00
2022-11-22T03:40:47.096Z,5.00
2022-11-22T03:45:48.579Z,4.98
2022-11-22T03:50:50.156Z,4.92
2022-11-22T03:55:51.632Z,4.86
2022-11-22T04:00:53.178Z,4.78
2022-11-22T04:05:55.062Z,4.75
2022-11-22T04:10:56.504Z,4.76
2022-11-22T04:15:57.945Z,4.68
2022-11-22T04:21:18.094Z,4.68
2022-11-22T04:26:19.569Z,4.68
2022-11-22T04:31:39.500Z,4.66
2022-11-22T04:36:40.984Z,4.58
2022-11-22T04:41:42.852Z,4.50
2022-11-22T04:46:44.332Z,4.53
2022-11-22T04:52:04.342Z,4.45
2022-11-22T04:57:05.792Z,4.47
2022-11-22T05:02:07.337Z,4.39
2022-11-22T05:07:08.802Z,4.36
2022-11-22T05:12:10.264Z,4.30
2022-11-22T05:17:13.667Z,4.32
2022-11-22T05:22:15.361Z,4.33
2022-11-22T05:27:16.892Z,4.32
2022-11-22T05:32:18.385Z,4.36
2022-11-22T05:37:19.842Z,4.37
2022-11-22T05:42:21.505Z,4.29
2022-11-22T05:47:23.020Z,4.19
2022-11-22T05:52:24.520Z,4.18
2022-11-22T05:57:26.998Z,4.14
2022-11-22T06:02:31.218Z,4.15
2022-11-22T06:07:32.841Z,4.08
2022-11-22T06:12:34.381Z,3.95
2022-11-22T06:17:35.888Z,4.06
2022-11-22T06:22:37.438Z,4.02
2022-11-22T06:27:38.927Z,3.98
2022-11-22T06:32:40.430Z,3.97
2022-11-22T06:37:41.938Z,3.94
2022-11-22T06:42:43.453Z,3.89
2022-11-22T06:47:44.944Z,3.90
2022-11-22T06:52:52.044Z,3.95
2022-11-22T06:57:53.509Z,4.03
2022-11-22T07:02:54.981Z,4.11
2022-11-22T07:08:02.841Z,4.10
2022-11-22T07:13:07.210Z,4.07
2022-11-22T07:18:08.679Z,4.00
2022-11-22T07:23:12.500Z,4.00
2022-11-22T07:28:15.447Z,4.00
2022-11-22T07:33:17.018Z,4.16
2022-11-22T07:38:18.593Z,4.21
2022-11-22T07:43:20.090Z,4.25
2022-11-22T07:48:21.549Z,4.12
2022-11-22T07:53:23.250Z,4.13
2022-11-22T07:58:24.737Z,4.17
2022-11-22T08:03:29.183Z,4.24
2022-11-22T08:08:31.321Z,4.22
2022-11-22T08:13:33.841Z,4.30
2022-11-22T08:18:36.535Z,4.24
2022-11-22T08:23:39.598Z,4.19
2022-11-22T08:28:42.740Z,4.22
2022-11-22T08:33:44.320Z,4.26
2022-11-22T08:38:45.990Z,4.25
2022-11-22T08:43:50.653Z,4.30
2022-11-22T08:48:54.095Z,4.17
2022-11-22T08:53:55.536Z,4.07
2022-11-22T08:58:57.049Z,4.01
2022-11-22T09:03:59.032Z,4.08
2022-11-22T09:09:29.924Z,4.18
2022-11-22T09:14:22.002Z,4.21
2022-11-22T09:19:23.538Z,4.22
2022-11-22T09:24:24.991Z,4.29
2022-11-22T09:29:28.155Z,4.38
2022-11-22T09:34:30.031Z,4.31
2022-11-22T09:39:31.723Z,4.29
2022-11-22T09:45:01.888Z,4.33
2022-11-22T09:50:33.844Z,4.53
2022-11-22T09:55:45.378Z,4.45
2022-11-22T10:00:51.991Z,4.53
2022-11-22T10:05:57.940Z,4.58
2022-11-22T10:11:01.371Z,4.62
2022-11-22T10:16:14.845Z,4.59
2022-11-22T10:21:16.574Z,4.62
2022-11-22T10:26:23.979Z,4.53
2022-11-22T10:31:43.237Z,4.66
2022-11-22T10:36:57.049Z,4.80
2022-11-22T10:42:01.430Z,4.76
2022-11-22T10:47:09.025Z,4.71
2022-11-22T10:52:33.386Z,4.82
2022-11-22T10:57:34.872Z,4.83
2022-11-22T11:02:54.834Z,5.00
2022-11-22T11:08:04.197Z,4.96
2022-11-22T11:13:23.574Z,4.94
2022-11-22T11:18:30.865Z,4.90
2022-11-22T11:23:32.573Z,5.01
2022-11-22T11:28:34.125Z,5.09
2022-11-22T11:33:38.413Z,5.04
2022-11-22T11:38:42.907Z,5.01
2022-11-22T11:43:44.559Z,5.01
2022-11-22T11:48:46.644Z,5.04
2022-11-22T11:54:15.722Z,5.11
2022-11-22T11:59:22.299Z,5.14
2022-11-22T12:04:27.365Z,5.03
2022-11-22T12:09:32.227Z,5.15
2022-11-22T12:15:03.290Z,5.17
2022-11-22T12:20:08.380Z,5.21
2022-11-22T12:25:32.977Z,5.25
2022-11-22T12:30:36.271Z,5.25
2022-11-22T12:35:43.763Z,5.25
2022-11-22T12:40:50.023Z,5.29
2022-11-22T12:46:00.182Z,5.34
2022-11-22T12:51:17.018Z,5.33
2022-11-22T12:56:33.541Z,5.28
2022-11-22T13:01:41.545Z,5.37
2022-11-22T13:06:58.912Z,5.47
2022-11-22T13:12:08.673Z,5.52
2022-11-22T13:17:12.242Z,5.41
2022-11-22T13:22:41.304Z,5.38
2022-11-22T13:27:50.833Z,5.47
2022-11-22T13:32:55.440Z,5.54
2022-11-22T13:38:00.747Z,5.51
2022-11-22T13:43:49.180Z,5.48
2022-11-22T13:48:53.613Z,5.54
2022-11-22T13:54:34.060Z,5.64
2022-11-22T13:59:35.842Z,5.62
2022-11-22T14:04:42.602Z,5.70
2022-11-22T14:09:54.079Z,5.65
2022-11-22T14:15:27.104Z,5.72
2022-11-22T14:20:39.520Z,5.65
2022-11-22T14:25:44.097Z,5.65
2022-11-22T14:30:49.993Z,5.67
2022-11-22T14:36:06.633Z,5.73
2022-11-22T14:41:26.659Z,5.79
2022-11-22T14:46:52.703Z,5.70
2022-11-22T14:51:56.257Z,5.56
2022-11-22T14:57:04.706Z,5.52
2022-11-22T15:02:25.363Z,5.62
2022-11-22T15:09:16.117Z,5.59
2022-11-22T15:13:34.472Z,5.66
2022-11-22T16:02:19.331Z,5.69
2022-11-22T16:07:37.722Z,5.66
2022-11-22T16:12:42.293Z,5.61
2022-11-22T16:17:55.016Z,5.50
2022-11-22T16:23:09.781Z,5.48
2022-11-22T16:28:32.759Z,5.58
2022-11-22T16:33:35.133Z,5.54
2022-11-22T16:38:36.791Z,5.61
2022-11-22T16:43:38.474Z,5.49
2022-11-22T16:48:40.600Z,5.56
2022-11-22T16:53:44.724Z,5.61
2022-11-22T16:58:48.469Z,5.62
2022-11-22T17:03:53.015Z,5.64
2022-11-22T17:08:56.640Z,5.62
2022-11-22T17:14:00.067Z,5.67
2022-11-22T17:19:01.641Z,5.50
2022-11-22T17:24:24.809Z,5.57
2022-11-22T17:29:49.169Z,5.65
2022-11-22T17:34:48.098Z,5.73
2022-11-22T17:39:52.736Z,5.49
2022-11-22T17:44:54.505Z,5.67
2022-11-22T17:49:56.628Z,5.64
2022-11-22T17:55:03.546Z,5.88
2022-11-22T18:00:08.276Z,5.95
2022-11-22T18:05:09.986Z,5.68
2022-11-22T18:10:11.977Z,5.90
2022-11-22T18:15:13.937Z,5.84
2022-11-22T18:20:15.448Z,5.99
2022-11-22T18:25:16.978Z,6.00
2022-11-22T18:30:18.570Z,6.09
2022-11-22T18:35:20.036Z,6.16
2022-11-22T18:40:21.563Z,6.15
2022-11-22T18:45:25.461Z,6.19
2022-11-22T18:50:26.970Z,6.27
2022-11-22T18:55:28.490Z,6.32
2022-11-22T19:00:30.030Z,6.29
2022-11-22T19:05:31.592Z,6.28
2022-11-22T19:10:33.059Z,6.34
2022-11-22T19:15:34.725Z,6.34
2022-11-22T19:20:54.554Z,6.37
2022-11-22T19:25:57.075Z,6.38
2022-11-22T19:31:09.148Z,6.37
2022-11-22T19:36:16.027Z,6.38
2022-11-22T19:41:22.744Z,6.36
2022-11-22T19:46:24.980Z,6.31
2022-11-22T19:51:28.482Z,6.37
2022-11-22T19:56:36.345Z,6.38
2022-11-22T20:01:39.616Z,6.37
2022-11-22T20:06:43.162Z,6.38
2022-11-22T20:11:47.504Z,6.36
2022-11-22T20:16:48.948Z,6.32
2022-11-22T20:21:50.544Z,6.33
2022-11-22T20:26:52.074Z,6.34
2022-11-22T20:31:53.641Z,6.31
2022-11-22T20:36:55.505Z,6.33
2022-11-22T20:42:18.506Z,6.33
2022-11-22T20:47:19.011Z,6.40
2022-11-22T20:52:20.507Z,6.45
2022-11-22T20:57:22.039Z,6.40
2022-11-22T21:02:23.547Z,6.44
2022-11-22T21:07:25.793Z,6.42
2022-11-22T21:12:27.532Z,6.43
2022-11-22T21:17:45.559Z,6.43
2022-11-22T21:22:54.219Z,6.44
2022-11-22T21:27:55.718Z,6.43
2022-11-22T21:32:57.254Z,6.44
2022-11-22T21:37:58.716Z,6.43
2022-11-22T21:43:00.166Z,6.46
2022-11-22T21:48:03.361Z,6.47
2022-11-22T21:53:05.302Z,6.49
2022-11-22T21:58:06.866Z,6.54
2022-11-22T22:03:10.153Z,6.55
2022-11-22T22:08:11.612Z,6.55
2022-11-22T22:13:13.057Z,6.57
2022-11-22T22:18:14.976Z,6.64
2022-11-22T22:23:16.520Z,6.57
2022-11-22T22:28:17.956Z,6.59
2022-11-22T22:33:19.485Z,6.63
2022-11-22T22:38:20.943Z,6.64
2022-11-22T22:43:23.473Z,6.72
2022-11-22T22:48:24.931Z,6.75
2022-11-22T22:53:26.417Z,6.76
2022-11-22T22:58:27.996Z,6.80
2022-11-22T23:03:29.546Z,6.78
2022-11-22T23:08:31.045Z,6.79
2022-11-22T23:13:34.529Z,6.81
2022-11-22T23:18:38.489Z,6.80
2022-11-22T23:23:39.985Z,6.81
2022-11-22T23:28:41.468Z,6.84
2022-11-22T23:33:44.025Z,6.81
2022-11-22T23:38:46.436Z,6.78
2022-11-22T23:43:52.529Z,6.84
2022-11-22T23:48:59.197Z,6.86
2022-11-22T23:54:03.441Z,6.90
2022-11-22T23:59:05.682Z,6.90
